Clinton, LA (70722)

12:55 PM CDT on August 23, 2017 (GMT -0500)
Slaughter La | | Change Station

Elev 150 ft 30.73 °N, 91.12 °W | Updated 25 seconds ago

Partly Cloudy
Partly Cloudy
88.7 °F
Feels Like 110 °F
N
0.0
Wind Variable Wind from North
Gusts 0.0 mph

Today
High -- | Low -- °F
--% Chance of Precip.
Yesterday
High -- | Low -- °F
Precip. -- in
Pressure 29.98 in
Visibility 10.0 miles
Clouds Scattered Clouds 3200 ft
Heat Index 110 °F
Dew Point 83 °F
Humidity 82%
Rainfall 0.00 in
Snow Depth Not available.
6:35 AM 7:37 PM
Waxing Crescent, 5% visible
METAR KBTR 231653Z COR 04003KT 10SM SCT032 31/22 A2998 RMK AO2 SLP151 T03060217
Pressure 29.98 in
Visibility 10.0 miles
Clouds Scattered Clouds 3200 ft
Heat Index 110 °F
Dew Point 83 °F
Humidity 82%
Rainfall 0.00 in
Snow Depth Not available.
6:35 AM 7:37 PM
Waxing Crescent, 5% visible
METAR KBTR 231653Z COR 04003KT 10SM SCT032 31/22 A2998 RMK AO2 SLP151 T03060217

Get Severe Weather Alerts

Thanks for signing up!

Be on the lookout for a verification email in your inbox.

You'll start receiving the daily forecast at 6 AM.

×

10-Day Weather Forecast

Almanac

Astronomy

Aug. 23, 2017 Rise Set
Actual Time
Civil Twilight
Nautical Twilight
Astronomical Twilight
Moon
Length of Visible Light
Length of Day
Tomorrow will be .
, % of the Moon is Illuminated

Today's Extremes

State Highs State Lows

Community

WunderPhotos

Category 6

Welcome to Category 6. This is the collective home for Weather Underground's featured writeups by Dr. Jeff Masters (right), Bob Henson (left), Chris Burt, and other regular contributors.

Nearby

Air Quality

  Air Quality AQ Index Pollutant
Not available.

Snow Depth

Station Depth Elevation

Earthquake Activity

City Distance Mag. Time & Date
Minimum magnitude displayed is 2.5.

Coastal Water Temperatures

Place Temperature

Stations

Nearby Weather Stations

Station Location Temp. Windchill Dew Point Humidity Wind Precip. Elev Updated Type
                   

Watches & Warnings

There are currently no watches in effect.